sensor_id;sensor_type;location;lat;lon;timestamp;P1;durP1;ratioP1;P2;durP2;ratioP2
56255;SDS011;57229;51.432;-2.598;2022-12-07T00:02:10;7.00;;;6.25;;
56255;SDS011;57229;51.432;-2.598;2022-12-07T00:04:36;8.23;;;6.68;;
56255;SDS011;57229;51.432;-2.598;2022-12-07T00:07:18;7.70;;;6.40;;
56255;SDS011;57229;51.432;-2.598;2022-12-07T00:09:50;8.32;;;6.45;;
56255;SDS011;57229;51.432;-2.598;2022-12-07T00:12:16;7.43;;;5.82;;
56255;SDS011;57229;51.432;-2.598;2022-12-07T00:14:42;9.05;;;6.82;;
56255;SDS011;57229;51.432;-2.598;2022-12-07T00:17:50;6.97;;;6.28;;
56255;SDS011;57229;51.432;-2.598;2022-12-07T00:26:29;9.95;;;6.25;;
56255;SDS011;57229;51.432;-2.598;2022-12-07T00:28:59;7.50;;;6.40;;
56255;SDS011;57229;51.432;-2.598;2022-12-07T00:31:32;8.77;;;6.53;;
56255;SDS011;57229;51.432;-2.598;2022-12-07T00:34:03;7.38;;;6.13;;
56255;SDS011;57229;51.432;-2.598;2022-12-07T00:36:30;7.57;;;6.70;;
56255;SDS011;57229;51.432;-2.598;2022-12-07T00:38:57;8.57;;;6.88;;
56255;SDS011;57229;51.432;-2.598;2022-12-07T00:41:24;9.05;;;5.90;;
56255;SDS011;57229;51.432;-2.598;2022-12-07T00:43:51;7.32;;;6.20;;
56255;SDS011;57229;51.432;-2.598;2022-12-07T00:46:17;7.68;;;6.07;;
56255;SDS011;57229;51.432;-2.598;2022-12-07T00:48:44;9.45;;;6.38;;
56255;SDS011;57229;51.432;-2.598;2022-12-07T00:51:11;6.60;;;5.15;;
56255;SDS011;57229;51.432;-2.598;2022-12-07T00:53:39;7.15;;;5.60;;
56255;SDS011;57229;51.432;-2.598;2022-12-07T00:56:05;8.63;;;5.20;;
56255;SDS011;57229;51.432;-2.598;2022-12-07T00:58:32;7.43;;;5.82;;
56255;SDS011;57229;51.432;-2.598;2022-12-07T01:03:36;6.28;;;5.50;;
56255;SDS011;57229;51.432;-2.598;2022-12-07T01:06:06;7.20;;;5.53;;
56255;SDS011;57229;51.432;-2.598;2022-12-07T01:08:32;6.47;;;5.50;;
56255;SDS011;57229;51.432;-2.598;2022-12-07T01:10:59;8.80;;;6.10;;
56255;SDS011;57229;51.432;-2.598;2022-12-07T01:13:36;7.90;;;5.72;;
56255;SDS011;57229;51.432;-2.598;2022-12-07T01:16:03;7.05;;;6.00;;
56255;SDS011;57229;51.432;-2.598;2022-12-07T01:18:31;7.18;;;5.70;;
56255;SDS011;57229;51.432;-2.598;2022-12-07T01:23:30;6.95;;;6.00;;
56255;SDS011;57229;51.432;-2.598;2022-12-07T01:25:57;6.63;;;5.82;;
56255;SDS011;57229;51.432;-2.598;2022-12-07T01:28:48;8.73;;;6.50;;
56255;SDS011;57229;51.432;-2.598;2022-12-07T01:31:27;8.07;;;5.82;;
56255;SDS011;57229;51.432;-2.598;2022-12-07T01:33:54;7.03;;;5.80;;
56255;SDS011;57229;51.432;-2.598;2022-12-07T01:36:28;9.57;;;6.00;;
56255;SDS011;57229;51.432;-2.598;2022-12-07T01:38:57;6.43;;;5.70;;
56255;SDS011;57229;51.432;-2.598;2022-12-07T01:41:30;8.25;;;6.18;;
56255;SDS011;57229;51.432;-2.598;2022-12-07T01:46:43;7.63;;;5.90;;
56255;SDS011;57229;51.432;-2.598;2022-12-07T01:49:21;8.05;;;6.40;;
56255;SDS011;57229;51.432;-2.598;2022-12-07T01:54:19;6.97;;;6.05;;
56255;SDS011;57229;51.432;-2.598;2022-12-07T01:56:49;8.93;;;6.15;;
56255;SDS011;57229;51.432;-2.598;2022-12-07T01:59:21;8.23;;;5.90;;
56255;SDS011;57229;51.432;-2.598;2022-12-07T02:01:56;7.80;;;6.20;;
56255;SDS011;57229;51.432;-2.598;2022-12-07T02:04:23;8.50;;;5.97;;
56255;SDS011;57229;51.432;-2.598;2022-12-07T02:06:49;10.82;;;6.38;;
56255;SDS011;57229;51.432;-2.598;2022-12-07T02:09:16;9.18;;;6.90;;
56255;SDS011;57229;51.432;-2.598;2022-12-07T02:11:42;7.53;;;6.22;;
56255;SDS011;57229;51.432;-2.598;2022-12-07T02:14:08;8.20;;;6.40;;
56255;SDS011;57229;51.432;-2.598;2022-12-07T02:17:09;9.90;;;6.57;;
56255;SDS011;57229;51.432;-2.598;2022-12-07T02:27:43;7.78;;;6.03;;
56255;SDS011;57229;51.432;-2.598;2022-12-07T02:30:31;9.73;;;6.28;;
56255;SDS011;57229;51.432;-2.598;2022-12-07T02:33:07;9.93;;;6.03;;
56255;SDS011;57229;51.432;-2.598;2022-12-07T02:35:39;9.60;;;7.18;;
56255;SDS011;57229;51.432;-2.598;2022-12-07T02:38:25;8.95;;;6.30;;
56255;SDS011;57229;51.432;-2.598;2022-12-07T02:41:21;6.93;;;6.20;;
56255;SDS011;57229;51.432;-2.598;2022-12-07T02:44:08;7.88;;;6.40;;
56255;SDS011;57229;51.432;-2.598;2022-12-07T02:46:57;8.25;;;6.50;;
56255;SDS011;57229;51.432;-2.598;2022-12-07T02:49:28;9.32;;;6.78;;
56255;SDS011;57229;51.432;-2.598;2022-12-07T02:51:55;6.72;;;5.90;;
56255;SDS011;57229;51.432;-2.598;2022-12-07T02:54:20;9.55;;;7.00;;
56255;SDS011;57229;51.432;-2.598;2022-12-07T02:56:51;7.10;;;6.32;;
56255;SDS011;57229;51.432;-2.598;2022-12-07T03:09:49;6.93;;;6.13;;
56255;SDS011;57229;51.432;-2.598;2022-12-07T03:12:44;8.02;;;6.50;;
56255;SDS011;57229;51.432;-2.598;2022-12-07T03:15:35;6.70;;;5.80;;
56255;SDS011;57229;51.432;-2.598;2022-12-07T03:18:10;8.18;;;6.50;;
56255;SDS011;57229;51.432;-2.598;2022-12-07T03:20:40;7.15;;;6.10;;
56255;SDS011;57229;51.432;-2.598;2022-12-07T03:23:09;8.18;;;6.60;;
56255;SDS011;57229;51.432;-2.598;2022-12-07T03:25:39;8.48;;;6.45;;
56255;SDS011;57229;51.432;-2.598;2022-12-07T03:28:07;7.65;;;6.35;;
56255;SDS011;57229;51.432;-2.598;2022-12-07T03:35:42;8.30;;;6.07;;
56255;SDS011;57229;51.432;-2.598;2022-12-07T03:38:21;7.80;;;6.20;;
56255;SDS011;57229;51.432;-2.598;2022-12-07T03:40:55;9.48;;;6.90;;
56255;SDS011;57229;51.432;-2.598;2022-12-07T03:43:24;8.18;;;6.00;;
56255;SDS011;57229;51.432;-2.598;2022-12-07T03:46:16;9.05;;;6.30;;
56255;SDS011;57229;51.432;-2.598;2022-12-07T03:49:00;8.05;;;6.00;;
56255;SDS011;57229;51.432;-2.598;2022-12-07T03:51:45;7.90;;;6.13;;
56255;SDS011;57229;51.432;-2.598;2022-12-07T03:56:53;8.55;;;6.55;;
56255;SDS011;57229;51.432;-2.598;2022-12-07T03:59:21;8.30;;;6.53;;
56255;SDS011;57229;51.432;-2.598;2022-12-07T04:01:51;8.82;;;6.60;;
56255;SDS011;57229;51.432;-2.598;2022-12-07T04:04:22;8.15;;;6.40;;
56255;SDS011;57229;51.432;-2.598;2022-12-07T04:06:49;8.30;;;6.60;;
56255;SDS011;57229;51.432;-2.598;2022-12-07T04:09:15;7.78;;;6.60;;
56255;SDS011;57229;51.432;-2.598;2022-12-07T04:11:41;8.55;;;6.57;;
56255;SDS011;57229;51.432;-2.598;2022-12-07T04:14:07;8.25;;;6.72;;
56255;SDS011;57229;51.432;-2.598;2022-12-07T04:19:15;7.93;;;6.43;;
56255;SDS011;57229;51.432;-2.598;2022-12-07T04:21:42;8.45;;;6.55;;
56255;SDS011;57229;51.432;-2.598;2022-12-07T04:24:08;9.43;;;6.28;;
56255;SDS011;57229;51.432;-2.598;2022-12-07T04:26:34;7.72;;;6.40;;
56255;SDS011;57229;51.432;-2.598;2022-12-07T04:29:00;7.63;;;6.30;;
56255;SDS011;57229;51.432;-2.598;2022-12-07T04:31:26;8.80;;;6.20;;
56255;SDS011;57229;51.432;-2.598;2022-12-07T04:33:51;7.97;;;6.40;;
56255;SDS011;57229;51.432;-2.598;2022-12-07T04:36:17;7.85;;;6.40;;
56255;SDS011;57229;51.432;-2.598;2022-12-07T04:38:44;7.60;;;6.30;;
56255;SDS011;57229;51.432;-2.598;2022-12-07T04:41:10;8.68;;;6.72;;
56255;SDS011;57229;51.432;-2.598;2022-12-07T04:43:36;8.70;;;6.38;;
56255;SDS011;57229;51.432;-2.598;2022-12-07T04:46:01;8.93;;;6.45;;
56255;SDS011;57229;51.432;-2.598;2022-12-07T04:48:28;7.43;;;6.07;;
56255;SDS011;57229;51.432;-2.598;2022-12-07T04:50:53;7.35;;;5.93;;
56255;SDS011;57229;51.432;-2.598;2022-12-07T04:53:19;7.47;;;6.03;;
56255;SDS011;57229;51.432;-2.598;2022-12-07T04:55:45;7.00;;;6.30;;
56255;SDS011;57229;51.432;-2.598;2022-12-07T04:58:11;8.43;;;6.53;;
56255;SDS011;57229;51.432;-2.598;2022-12-07T05:00:37;8.18;;;6.47;;
56255;SDS011;57229;51.432;-2.598;2022-12-07T05:03:03;8.20;;;6.47;;
56255;SDS011;57229;51.432;-2.598;2022-12-07T05:05:29;8.32;;;6.72;;
56255;SDS011;57229;51.432;-2.598;2022-12-07T05:07:55;8.05;;;6.70;;
56255;SDS011;57229;51.432;-2.598;2022-12-07T05:10:20;7.18;;;6.30;;
56255;SDS011;57229;51.432;-2.598;2022-12-07T05:12:46;8.48;;;6.30;;
56255;SDS011;57229;51.432;-2.598;2022-12-07T05:15:13;9.00;;;6.80;;
56255;SDS011;57229;51.432;-2.598;2022-12-07T05:17:39;8.35;;;6.70;;
56255;SDS011;57229;51.432;-2.598;2022-12-07T05:20:05;7.20;;;5.97;;
56255;SDS011;57229;51.432;-2.598;2022-12-07T05:22:32;7.20;;;5.90;;
56255;SDS011;57229;51.432;-2.598;2022-12-07T05:24:57;8.70;;;6.13;;
56255;SDS011;57229;51.432;-2.598;2022-12-07T05:27:23;7.75;;;6.00;;
56255;SDS011;57229;51.432;-2.598;2022-12-07T05:29:51;8.15;;;6.38;;
56255;SDS011;57229;51.432;-2.598;2022-12-07T05:32:17;7.00;;;6.07;;
56255;SDS011;57229;51.432;-2.598;2022-12-07T05:34:43;8.90;;;6.43;;
56255;SDS011;57229;51.432;-2.598;2022-12-07T05:37:09;6.72;;;5.80;;
56255;SDS011;57229;51.432;-2.598;2022-12-07T05:39:35;6.63;;;5.95;;
56255;SDS011;57229;51.432;-2.598;2022-12-07T05:42:02;7.35;;;6.15;;
56255;SDS011;57229;51.432;-2.598;2022-12-07T05:44:37;7.40;;;5.97;;
56255;SDS011;57229;51.432;-2.598;2022-12-07T05:47:10;7.80;;;6.05;;
56255;SDS011;57229;51.432;-2.598;2022-12-07T05:49:36;7.40;;;6.07;;
56255;SDS011;57229;51.432;-2.598;2022-12-07T05:52:02;8.60;;;6.38;;
56255;SDS011;57229;51.432;-2.598;2022-12-07T05:54:28;7.18;;;6.05;;
56255;SDS011;57229;51.432;-2.598;2022-12-07T05:56:54;7.22;;;6.00;;
56255;SDS011;57229;51.432;-2.598;2022-12-07T05:59:20;9.52;;;5.88;;
56255;SDS011;57229;51.432;-2.598;2022-12-07T06:01:54;6.45;;;5.85;;
56255;SDS011;57229;51.432;-2.598;2022-12-07T06:04:21;7.65;;;6.20;;
56255;SDS011;57229;51.432;-2.598;2022-12-07T06:06:47;6.90;;;6.20;;
56255;SDS011;57229;51.432;-2.598;2022-12-07T06:09:13;8.43;;;6.57;;
56255;SDS011;57229;51.432;-2.598;2022-12-07T06:11:40;8.68;;;6.43;;
56255;SDS011;57229;51.432;-2.598;2022-12-07T06:14:24;7.28;;;6.20;;
56255;SDS011;57229;51.432;-2.598;2022-12-07T06:16:50;6.82;;;6.07;;
56255;SDS011;57229;51.432;-2.598;2022-12-07T06:19:16;6.60;;;5.90;;
56255;SDS011;57229;51.432;-2.598;2022-12-07T06:21:42;6.68;;;5.97;;
56255;SDS011;57229;51.432;-2.598;2022-12-07T06:24:11;7.28;;;6.10;;
56255;SDS011;57229;51.432;-2.598;2022-12-07T06:26:38;7.80;;;6.10;;
56255;SDS011;57229;51.432;-2.598;2022-12-07T06:29:04;9.07;;;6.20;;
56255;SDS011;57229;51.432;-2.598;2022-12-07T06:31:30;6.75;;;5.63;;
56255;SDS011;57229;51.432;-2.598;2022-12-07T06:33:57;7.63;;;5.97;;
56255;SDS011;57229;51.432;-2.598;2022-12-07T06:36:23;8.80;;;6.22;;
56255;SDS011;57229;51.432;-2.598;2022-12-07T06:38:49;6.38;;;5.57;;
56255;SDS011;57229;51.432;-2.598;2022-12-07T06:41:15;6.57;;;5.40;;
56255;SDS011;57229;51.432;-2.598;2022-12-07T06:43:40;8.07;;;5.97;;
56255;SDS011;57229;51.432;-2.598;2022-12-07T06:46:07;7.07;;;6.35;;
56255;SDS011;57229;51.432;-2.598;2022-12-07T06:48:33;8.48;;;6.20;;
56255;SDS011;57229;51.432;-2.598;2022-12-07T06:50:59;7.75;;;5.80;;
56255;SDS011;57229;51.432;-2.598;2022-12-07T06:53:24;7.47;;;6.40;;
56255;SDS011;57229;51.432;-2.598;2022-12-07T06:55:50;6.65;;;5.95;;
56255;SDS011;57229;51.432;-2.598;2022-12-07T06:58:16;7.57;;;6.55;;
56255;SDS011;57229;51.432;-2.598;2022-12-07T07:00:43;7.57;;;6.30;;
56255;SDS011;57229;51.432;-2.598;2022-12-07T07:03:09;8.93;;;6.55;;
56255;SDS011;57229;51.432;-2.598;2022-12-07T07:05:37;7.13;;;5.85;;
56255;SDS011;57229;51.432;-2.598;2022-12-07T07:08:03;7.88;;;6.22;;
56255;SDS011;57229;51.432;-2.598;2022-12-07T07:10:32;8.77;;;5.95;;
56255;SDS011;57229;51.432;-2.598;2022-12-07T07:12:58;10.55;;;6.20;;
56255;SDS011;57229;51.432;-2.598;2022-12-07T07:15:24;8.50;;;5.95;;
56255;SDS011;57229;51.432;-2.598;2022-12-07T07:17:50;8.82;;;5.57;;
56255;SDS011;57229;51.432;-2.598;2022-12-07T07:20:16;7.70;;;5.93;;
56255;SDS011;57229;51.432;-2.598;2022-12-07T07:22:41;10.38;;;5.80;;
56255;SDS011;57229;51.432;-2.598;2022-12-07T07:25:07;11.23;;;5.90;;
56255;SDS011;57229;51.432;-2.598;2022-12-07T07:27:33;9.43;;;5.90;;
56255;SDS011;57229;51.432;-2.598;2022-12-07T07:29:59;8.68;;;6.50;;
56255;SDS011;57229;51.432;-2.598;2022-12-07T07:32:26;6.60;;;5.90;;
56255;SDS011;57229;51.432;-2.598;2022-12-07T07:34:51;7.20;;;6.10;;
56255;SDS011;57229;51.432;-2.598;2022-12-07T07:37:17;11.52;;;5.97;;
56255;SDS011;57229;51.432;-2.598;2022-12-07T07:39:43;8.43;;;5.60;;
56255;SDS011;57229;51.432;-2.598;2022-12-07T07:42:08;9.88;;;6.00;;
56255;SDS011;57229;51.432;-2.598;2022-12-07T07:44:34;8.80;;;5.53;;
56255;SDS011;57229;51.432;-2.598;2022-12-07T07:47:00;12.05;;;6.00;;
56255;SDS011;57229;51.432;-2.598;2022-12-07T07:49:26;9.45;;;5.80;;
56255;SDS011;57229;51.432;-2.598;2022-12-07T07:51:51;6.88;;;5.60;;
56255;SDS011;57229;51.432;-2.598;2022-12-07T07:54:17;7.45;;;5.63;;
56255;SDS011;57229;51.432;-2.598;2022-12-07T07:56:47;7.25;;;5.07;;
56255;SDS011;57229;51.432;-2.598;2022-12-07T07:59:13;7.10;;;5.30;;
56255;SDS011;57229;51.432;-2.598;2022-12-07T08:01:39;9.45;;;6.25;;
56255;SDS011;57229;51.432;-2.598;2022-12-07T08:04:05;10.13;;;6.13;;
56255;SDS011;57229;51.432;-2.598;2022-12-07T08:06:31;10.65;;;5.80;;
56255;SDS011;57229;51.432;-2.598;2022-12-07T08:08:57;8.80;;;5.60;;
56255;SDS011;57229;51.432;-2.598;2022-12-07T08:11:23;8.23;;;5.45;;
56255;SDS011;57229;51.432;-2.598;2022-12-07T08:13:49;8.93;;;5.65;;
56255;SDS011;57229;51.432;-2.598;2022-12-07T08:16:15;8.18;;;6.18;;
56255;SDS011;57229;51.432;-2.598;2022-12-07T08:18:42;8.15;;;6.15;;
56255;SDS011;57229;51.432;-2.598;2022-12-07T08:21:12;8.18;;;6.10;;
56255;SDS011;57229;51.432;-2.598;2022-12-07T08:23:39;8.15;;;5.95;;
56255;SDS011;57229;51.432;-2.598;2022-12-07T08:26:07;10.38;;;6.50;;
56255;SDS011;57229;51.432;-2.598;2022-12-07T08:28:34;7.88;;;5.70;;
56255;SDS011;57229;51.432;-2.598;2022-12-07T08:31:00;11.15;;;5.85;;
56255;SDS011;57229;51.432;-2.598;2022-12-07T08:33:30;8.20;;;6.05;;
56255;SDS011;57229;51.432;-2.598;2022-12-07T08:36:02;7.45;;;6.10;;
56255;SDS011;57229;51.432;-2.598;2022-12-07T08:38:34;8.25;;;5.88;;
56255;SDS011;57229;51.432;-2.598;2022-12-07T08:41:00;22.33;;;7.47;;
56255;SDS011;57229;51.432;-2.598;2022-12-07T08:43:26;16.23;;;7.18;;
56255;SDS011;57229;51.432;-2.598;2022-12-07T08:48:33;11.70;;;6.75;;
56255;SDS011;57229;51.432;-2.598;2022-12-07T08:51:01;9.15;;;6.38;;
56255;SDS011;57229;51.432;-2.598;2022-12-07T08:53:27;12.18;;;6.70;;
56255;SDS011;57229;51.432;-2.598;2022-12-07T08:55:54;16.10;;;7.22;;
56255;SDS011;57229;51.432;-2.598;2022-12-07T08:58:21;13.07;;;6.78;;
56255;SDS011;57229;51.432;-2.598;2022-12-07T09:00:47;15.60;;;6.90;;
56255;SDS011;57229;51.432;-2.598;2022-12-07T09:03:13;20.42;;;7.15;;
56255;SDS011;57229;51.432;-2.598;2022-12-07T09:05:38;17.20;;;6.90;;
56255;SDS011;57229;51.432;-2.598;2022-12-07T09:08:04;14.30;;;6.35;;
56255;SDS011;57229;51.432;-2.598;2022-12-07T09:10:31;13.45;;;7.22;;
56255;SDS011;57229;51.432;-2.598;2022-12-07T09:12:57;15.43;;;6.88;;
56255;SDS011;57229;51.432;-2.598;2022-12-07T09:15:26;12.18;;;6.53;;
56255;SDS011;57229;51.432;-2.598;2022-12-07T09:17:53;12.40;;;6.70;;
56255;SDS011;57229;51.432;-2.598;2022-12-07T09:20:19;11.95;;;6.65;;
56255;SDS011;57229;51.432;-2.598;2022-12-07T09:22:45;10.73;;;7.35;;
56255;SDS011;57229;51.432;-2.598;2022-12-07T09:25:10;10.38;;;7.03;;
56255;SDS011;57229;51.432;-2.598;2022-12-07T09:27:36;19.75;;;7.78;;
56255;SDS011;57229;51.432;-2.598;2022-12-07T09:30:02;16.40;;;7.80;;
56255;SDS011;57229;51.432;-2.598;2022-12-07T09:32:29;12.63;;;7.38;;
56255;SDS011;57229;51.432;-2.598;2022-12-07T09:34:55;11.93;;;6.95;;
56255;SDS011;57229;51.432;-2.598;2022-12-07T09:37:21;9.38;;;7.80;;
56255;SDS011;57229;51.432;-2.598;2022-12-07T09:39:47;11.00;;;7.25;;
56255;SDS011;57229;51.432;-2.598;2022-12-07T09:44:54;10.35;;;6.95;;
56255;SDS011;57229;51.432;-2.598;2022-12-07T09:47:24;12.50;;;7.55;;
56255;SDS011;57229;51.432;-2.598;2022-12-07T09:49:51;10.73;;;7.47;;
56255;SDS011;57229;51.432;-2.598;2022-12-07T09:52:28;12.07;;;7.70;;
56255;SDS011;57229;51.432;-2.598;2022-12-07T09:58:45;20.58;;;8.32;;
56255;SDS011;57229;51.432;-2.598;2022-12-07T10:01:13;13.93;;;7.80;;
56255;SDS011;57229;51.432;-2.598;2022-12-07T10:03:48;14.05;;;7.60;;
56255;SDS011;57229;51.432;-2.598;2022-12-07T10:06:17;14.30;;;8.15;;
56255;SDS011;57229;51.432;-2.598;2022-12-07T10:08:43;15.43;;;8.68;;
56255;SDS011;57229;51.432;-2.598;2022-12-07T10:11:09;14.73;;;8.57;;
56255;SDS011;57229;51.432;-2.598;2022-12-07T10:13:40;11.07;;;7.97;;
56255;SDS011;57229;51.432;-2.598;2022-12-07T10:19:23;19.52;;;8.60;;
56255;SDS011;57229;51.432;-2.598;2022-12-07T10:24:34;29.75;;;9.10;;
56255;SDS011;57229;51.432;-2.598;2022-12-07T10:27:02;19.80;;;8.50;;
56255;SDS011;57229;51.432;-2.598;2022-12-07T10:29:32;20.13;;;8.82;;
56255;SDS011;57229;51.432;-2.598;2022-12-07T10:34:38;17.95;;;9.45;;
56255;SDS011;57229;51.432;-2.598;2022-12-07T10:39:42;18.02;;;9.80;;
56255;SDS011;57229;51.432;-2.598;2022-12-07T10:44:48;20.02;;;10.20;;
56255;SDS011;57229;51.432;-2.598;2022-12-07T10:52:25;15.13;;;10.73;;
56255;SDS011;57229;51.432;-2.598;2022-12-07T11:06:27;15.10;;;9.57;;
56255;SDS011;57229;51.432;-2.598;2022-12-07T11:09:06;17.50;;;9.15;;
56255;SDS011;57229;51.432;-2.598;2022-12-07T11:11:43;17.17;;;9.10;;
56255;SDS011;57229;51.432;-2.598;2022-12-07T11:17:18;14.95;;;9.55;;
56255;SDS011;57229;51.432;-2.598;2022-12-07T11:34:08;13.15;;;8.90;;
56255;SDS011;57229;51.432;-2.598;2022-12-07T11:36:47;14.65;;;9.05;;
56255;SDS011;57229;51.432;-2.598;2022-12-07T11:39:23;12.43;;;9.57;;
56255;SDS011;57229;51.432;-2.598;2022-12-07T11:41:56;14.52;;;9.25;;
56255;SDS011;57229;51.432;-2.598;2022-12-07T11:47:14;11.00;;;8.32;;
56255;SDS011;57229;51.432;-2.598;2022-12-07T11:52:57;11.65;;;9.15;;
56255;SDS011;57229;51.432;-2.598;2022-12-07T11:55:32;11.85;;;8.77;;
56255;SDS011;57229;51.432;-2.598;2022-12-07T11:58:35;13.00;;;8.90;;
56255;SDS011;57229;51.432;-2.598;2022-12-07T12:03:40;12.95;;;8.40;;
56255;SDS011;57229;51.432;-2.598;2022-12-07T12:06:12;12.15;;;8.20;;
56255;SDS011;57229;51.432;-2.598;2022-12-07T12:16:57;12.80;;;8.60;;
56255;SDS011;57229;51.432;-2.598;2022-12-07T12:19:44;10.23;;;7.72;;
56255;SDS011;57229;51.432;-2.598;2022-12-07T12:22:36;16.75;;;8.40;;
56255;SDS011;57229;51.432;-2.598;2022-12-07T12:25:24;17.75;;;8.15;;
56255;SDS011;57229;51.432;-2.598;2022-12-07T12:27:54;18.92;;;8.70;;
56255;SDS011;57229;51.432;-2.598;2022-12-07T12:30:29;14.30;;;7.70;;
56255;SDS011;57229;51.432;-2.598;2022-12-07T12:33:01;20.92;;;8.13;;
56255;SDS011;57229;51.432;-2.598;2022-12-07T12:35:40;14.48;;;7.80;;
56255;SDS011;57229;51.432;-2.598;2022-12-07T12:46:46;14.50;;;7.45;;
56255;SDS011;57229;51.432;-2.598;2022-12-07T12:54:21;15.88;;;6.72;;
56255;SDS011;57229;51.432;-2.598;2022-12-07T13:04:53;22.15;;;7.25;;
56255;SDS011;57229;51.432;-2.598;2022-12-07T13:10:38;14.77;;;7.30;;
56255;SDS011;57229;51.432;-2.598;2022-12-07T13:21:00;11.75;;;6.32;;
56255;SDS011;57229;51.432;-2.598;2022-12-07T13:23:36;10.75;;;6.22;;
56255;SDS011;57229;51.432;-2.598;2022-12-07T13:31:35;9.00;;;6.03;;
56255;SDS011;57229;51.432;-2.598;2022-12-07T13:34:02;7.88;;;6.45;;
56255;SDS011;57229;51.432;-2.598;2022-12-07T13:36:31;10.35;;;5.78;;
56255;SDS011;57229;51.432;-2.598;2022-12-07T13:39:11;11.43;;;6.07;;
56255;SDS011;57229;51.432;-2.598;2022-12-07T13:41:44;8.23;;;5.47;;
56255;SDS011;57229;51.432;-2.598;2022-12-07T13:44:16;10.75;;;5.80;;
56255;SDS011;57229;51.432;-2.598;2022-12-07T13:49:25;8.23;;;6.00;;
56255;SDS011;57229;51.432;-2.598;2022-12-07T13:55:05;8.07;;;5.65;;
56255;SDS011;57229;51.432;-2.598;2022-12-07T13:57:38;8.38;;;5.85;;
56255;SDS011;57229;51.432;-2.598;2022-12-07T14:00:06;9.07;;;5.40;;
56255;SDS011;57229;51.432;-2.598;2022-12-07T14:05:29;11.80;;;5.53;;
56255;SDS011;57229;51.432;-2.598;2022-12-07T14:07:59;9.98;;;5.90;;
56255;SDS011;57229;51.432;-2.598;2022-12-07T14:13:33;8.55;;;5.82;;
56255;SDS011;57229;51.432;-2.598;2022-12-07T14:16:01;9.82;;;5.53;;
56255;SDS011;57229;51.432;-2.598;2022-12-07T14:18:36;7.95;;;5.35;;
56255;SDS011;57229;51.432;-2.598;2022-12-07T14:21:06;8.15;;;5.72;;
56255;SDS011;57229;51.432;-2.598;2022-12-07T14:23:44;8.00;;;5.82;;
56255;SDS011;57229;51.432;-2.598;2022-12-07T14:26:12;8.02;;;5.93;;
56255;SDS011;57229;51.432;-2.598;2022-12-07T14:28:39;7.57;;;5.53;;
56255;SDS011;57229;51.432;-2.598;2022-12-07T14:31:16;8.00;;;5.60;;
56255;SDS011;57229;51.432;-2.598;2022-12-07T14:33:44;7.57;;;5.40;;
56255;SDS011;57229;51.432;-2.598;2022-12-07T14:36:11;7.78;;;5.82;;
56255;SDS011;57229;51.432;-2.598;2022-12-07T14:38:38;11.27;;;5.90;;
56255;SDS011;57229;51.432;-2.598;2022-12-07T14:41:04;8.63;;;5.68;;
56255;SDS011;57229;51.432;-2.598;2022-12-07T14:44:00;9.57;;;4.95;;
56255;SDS011;57229;51.432;-2.598;2022-12-07T14:46:27;7.10;;;5.22;;
56255;SDS011;57229;51.432;-2.598;2022-12-07T14:48:53;8.50;;;5.25;;
56255;SDS011;57229;51.432;-2.598;2022-12-07T14:51:18;8.57;;;5.22;;
56255;SDS011;57229;51.432;-2.598;2022-12-07T14:53:46;7.78;;;5.30;;
56255;SDS011;57229;51.432;-2.598;2022-12-07T14:56:14;7.25;;;5.18;;
56255;SDS011;57229;51.432;-2.598;2022-12-07T14:58:40;6.53;;;4.45;;
56255;SDS011;57229;51.432;-2.598;2022-12-07T15:01:06;7.22;;;4.95;;
56255;SDS011;57229;51.432;-2.598;2022-12-07T15:03:32;6.22;;;4.50;;
56255;SDS011;57229;51.432;-2.598;2022-12-07T15:05:59;4.97;;;4.35;;
56255;SDS011;57229;51.432;-2.598;2022-12-07T15:08:25;7.30;;;4.80;;
56255;SDS011;57229;51.432;-2.598;2022-12-07T15:10:51;5.40;;;4.70;;
56255;SDS011;57229;51.432;-2.598;2022-12-07T15:13:17;5.18;;;4.68;;
56255;SDS011;57229;51.432;-2.598;2022-12-07T15:16:01;5.72;;;4.75;;
56255;SDS011;57229;51.432;-2.598;2022-12-07T15:18:27;6.13;;;4.57;;
56255;SDS011;57229;51.432;-2.598;2022-12-07T15:20:53;6.20;;;4.30;;
56255;SDS011;57229;51.432;-2.598;2022-12-07T15:23:19;7.93;;;4.88;;
56255;SDS011;57229;51.432;-2.598;2022-12-07T15:25:46;5.72;;;4.50;;
56255;SDS011;57229;51.432;-2.598;2022-12-07T15:28:13;6.32;;;4.47;;
56255;SDS011;57229;51.432;-2.598;2022-12-07T15:30:40;5.38;;;4.43;;
56255;SDS011;57229;51.432;-2.598;2022-12-07T15:33:10;9.07;;;4.50;;
56255;SDS011;57229;51.432;-2.598;2022-12-07T15:35:43;8.00;;;4.57;;
56255;SDS011;57229;51.432;-2.598;2022-12-07T15:38:09;7.22;;;4.13;;
56255;SDS011;57229;51.432;-2.598;2022-12-07T15:40:36;8.20;;;4.43;;
56255;SDS011;57229;51.432;-2.598;2022-12-07T15:43:02;12.13;;;4.80;;
56255;SDS011;57229;51.432;-2.598;2022-12-07T15:45:29;10.02;;;4.60;;
56255;SDS011;57229;51.432;-2.598;2022-12-07T15:47:55;8.50;;;4.40;;
56255;SDS011;57229;51.432;-2.598;2022-12-07T15:50:21;7.50;;;4.35;;
56255;SDS011;57229;51.432;-2.598;2022-12-07T15:52:47;8.00;;;4.40;;
56255;SDS011;57229;51.432;-2.598;2022-12-07T15:55:13;9.00;;;4.32;;
56255;SDS011;57229;51.432;-2.598;2022-12-07T15:57:39;10.68;;;5.13;;
56255;SDS011;57229;51.432;-2.598;2022-12-07T16:00:06;8.88;;;4.32;;
56255;SDS011;57229;51.432;-2.598;2022-12-07T16:02:34;6.88;;;4.68;;
56255;SDS011;57229;51.432;-2.598;2022-12-07T16:05:01;9.25;;;4.40;;
56255;SDS011;57229;51.432;-2.598;2022-12-07T16:07:27;7.32;;;4.10;;
56255;SDS011;57229;51.432;-2.598;2022-12-07T16:09:52;9.27;;;4.20;;
56255;SDS011;57229;51.432;-2.598;2022-12-07T16:12:18;11.30;;;4.45;;
56255;SDS011;57229;51.432;-2.598;2022-12-07T16:14:44;7.13;;;4.32;;
56255;SDS011;57229;51.432;-2.598;2022-12-07T16:17:09;7.28;;;4.55;;
56255;SDS011;57229;51.432;-2.598;2022-12-07T16:19:36;8.73;;;4.20;;
56255;SDS011;57229;51.432;-2.598;2022-12-07T16:22:03;8.95;;;4.47;;
56255;SDS011;57229;51.432;-2.598;2022-12-07T16:24:30;5.28;;;4.40;;
56255;SDS011;57229;51.432;-2.598;2022-12-07T16:26:56;6.72;;;4.13;;
56255;SDS011;57229;51.432;-2.598;2022-12-07T16:29:22;7.05;;;4.20;;
56255;SDS011;57229;51.432;-2.598;2022-12-07T16:31:48;15.93;;;4.60;;
56255;SDS011;57229;51.432;-2.598;2022-12-07T16:34:14;10.85;;;4.47;;
56255;SDS011;57229;51.432;-2.598;2022-12-07T16:36:40;13.88;;;4.40;;
56255;SDS011;57229;51.432;-2.598;2022-12-07T16:39:06;11.95;;;4.93;;
56255;SDS011;57229;51.432;-2.598;2022-12-07T16:41:32;20.48;;;4.93;;
56255;SDS011;57229;51.432;-2.598;2022-12-07T16:44:02;19.25;;;4.63;;
56255;SDS011;57229;51.432;-2.598;2022-12-07T16:46:31;15.25;;;6.15;;
56255;SDS011;57229;51.432;-2.598;2022-12-07T16:49:00;16.00;;;5.00;;
56255;SDS011;57229;51.432;-2.598;2022-12-07T16:51:26;16.58;;;4.90;;
56255;SDS011;57229;51.432;-2.598;2022-12-07T16:53:52;18.65;;;4.90;;
56255;SDS011;57229;51.432;-2.598;2022-12-07T16:56:18;23.48;;;5.00;;
56255;SDS011;57229;51.432;-2.598;2022-12-07T16:58:44;17.17;;;5.10;;
56255;SDS011;57229;51.432;-2.598;2022-12-07T17:01:13;22.23;;;5.00;;
56255;SDS011;57229;51.432;-2.598;2022-12-07T17:03:43;17.08;;;4.43;;
56255;SDS011;57229;51.432;-2.598;2022-12-07T17:06:19;17.65;;;4.45;;
56255;SDS011;57229;51.432;-2.598;2022-12-07T17:08:50;16.10;;;4.90;;
56255;SDS011;57229;51.432;-2.598;2022-12-07T17:11:17;18.85;;;5.85;;
56255;SDS011;57229;51.432;-2.598;2022-12-07T17:13:47;28.20;;;8.27;;
56255;SDS011;57229;51.432;-2.598;2022-12-07T17:16:32;37.90;;;12.57;;
56255;SDS011;57229;51.432;-2.598;2022-12-07T17:19:00;45.92;;;14.55;;
56255;SDS011;57229;51.432;-2.598;2022-12-07T17:21:30;57.17;;;16.30;;
56255;SDS011;57229;51.432;-2.598;2022-12-07T17:23:57;55.33;;;18.33;;
56255;SDS011;57229;51.432;-2.598;2022-12-07T17:26:25;55.45;;;16.98;;
56255;SDS011;57229;51.432;-2.598;2022-12-07T17:28:51;61.47;;;17.60;;
56255;SDS011;57229;51.432;-2.598;2022-12-07T17:31:18;55.08;;;17.90;;
56255;SDS011;57229;51.432;-2.598;2022-12-07T17:33:45;60.70;;;19.23;;